createdAt,value
2018-04-18T00:01:05.280Z,14.60
2018-04-18T00:03:34.364Z,14.43
2018-04-18T00:06:04.188Z,15.47
2018-04-18T00:08:33.269Z,15.10
2018-04-18T00:11:03.087Z,14.87
2018-04-18T00:13:32.167Z,15.10
2018-04-18T00:16:01.242Z,15.47
2018-04-18T00:18:30.293Z,15.07
2018-04-18T00:20:59.361Z,15.90
2018-04-18T00:23:29.213Z,16.63
2018-04-18T00:25:58.261Z,19.13
2018-04-18T00:28:28.098Z,17.10
2018-04-18T00:30:57.167Z,16.70
2018-04-18T00:33:26.239Z,17.93
2018-04-18T00:35:55.278Z,16.80
2018-04-18T00:38:24.359Z,17.57
2018-04-18T00:40:54.185Z,15.80
2018-04-18T00:43:23.234Z,16.50
2018-04-18T00:45:52.298Z,17.30
2018-04-18T00:48:21.834Z,17.80
2018-04-18T00:50:50.923Z,19.03
2018-04-18T00:53:19.960Z,20.80
2018-04-18T00:55:49.809Z,19.63
2018-04-18T00:58:18.864Z,19.90
2018-04-18T01:00:48.732Z,19.47
2018-04-18T01:03:17.779Z,20.37
2018-04-18T01:05:47.591Z,21.70
2018-04-18T01:08:17.444Z,21.40
2018-04-18T01:10:46.491Z,20.33
2018-04-18T01:13:16.336Z,20.30
2018-04-18T01:15:45.380Z,20.10
2018-04-18T01:18:14.428Z,19.97
2018-04-18T01:20:43.496Z,22.37
2018-04-18T01:23:12.545Z,20.37
2018-04-18T01:25:41.654Z,21.30
2018-04-18T01:28:10.713Z,20.80
2018-04-18T01:30:39.758Z,20.20
2018-04-18T01:33:09.599Z,18.10
2018-04-18T01:35:38.663Z,20.77
2018-04-18T01:38:07.733Z,21.97
2018-04-18T01:40:36.764Z,19.50
2018-04-18T01:43:06.601Z,19.70
2018-04-18T01:45:35.664Z,23.60
2018-04-18T01:48:05.494Z,18.97
2018-04-18T01:50:34.554Z,21.43
2018-04-18T01:53:03.604Z,21.20
2018-04-18T01:55:32.667Z,20.07
2018-04-18T01:58:02.472Z,20.00
2018-04-18T02:00:32.305Z,19.20
2018-04-18T02:03:01.352Z,21.60
2018-04-18T02:05:30.445Z,21.07
2018-04-18T02:07:59.524Z,21.20
2018-04-18T02:10:28.586Z,21.13
2018-04-18T02:12:57.630Z,20.30
2018-04-18T02:15:26.718Z,19.80
2018-04-18T02:17:55.764Z,19.50
2018-04-18T02:20:24.815Z,21.80
2018-04-18T02:22:53.920Z,20.23
2018-04-18T02:25:24.096Z,31.50
2018-04-18T02:27:53.178Z,20.97
2018-04-18T02:30:22.223Z,24.67
2018-04-18T02:32:51.291Z,24.40
2018-04-18T02:35:20.339Z,25.67
2018-04-18T02:37:50.164Z,28.50
2018-04-18T02:40:19.216Z,22.07
2018-04-18T02:42:48.293Z,19.37
2018-04-18T02:45:17.351Z,17.63
2018-04-18T02:47:46.412Z,19.80
2018-04-18T02:50:16.244Z,20.90
2018-04-18T02:52:45.321Z,23.67
2018-04-18T02:55:15.128Z,34.77
2018-04-18T02:57:44.968Z,20.43
2018-04-18T03:00:14.044Z,16.83
2018-04-18T03:02:43.872Z,17.70
2018-04-18T03:05:13.695Z,15.43
2018-04-18T03:07:42.760Z,18.00
2018-04-18T03:10:12.656Z,19.30
2018-04-18T03:12:41.690Z,20.00
2018-04-18T03:15:10.756Z,17.00
2018-04-18T03:17:40.570Z,17.80
2018-04-18T03:20:10.408Z,16.70
2018-04-18T03:22:39.460Z,16.93
2018-04-18T03:25:08.503Z,19.60
2018-04-18T03:27:37.560Z,20.63
2018-04-18T03:30:06.595Z,18.90
2018-04-18T03:32:35.680Z,18.57
2018-04-18T03:35:04.714Z,19.00
2018-04-18T03:37:33.774Z,18.13
2018-04-18T03:40:03.593Z,17.70
2018-04-18T03:42:32.660Z,17.87
2018-04-18T03:45:02.468Z,19.00
2018-04-18T03:47:32.354Z,20.13
2018-04-18T03:50:01.344Z,20.20
2018-04-18T03:52:30.417Z,18.13
2018-04-18T03:54:59.464Z,21.40
2018-04-18T03:57:29.297Z,19.77
2018-04-18T03:59:58.370Z,19.00
2018-04-18T04:02:28.203Z,20.00
2018-04-18T04:04:57.239Z,20.27
2018-04-18T04:07:26.313Z,20.93
2018-04-18T04:09:55.378Z,21.33
2018-04-18T04:12:25.217Z,20.13
2018-04-18T04:14:54.277Z,27.97
2018-04-18T04:17:41.854Z,46.80
2018-04-18T04:20:28.784Z,41.33
2018-04-18T04:23:15.620Z,95.53
2018-04-18T04:25:45.446Z,55.30
2018-04-18T04:28:15.245Z,25.20
2018-04-18T04:30:45.076Z,21.20
2018-04-18T04:33:14.907Z,21.50
2018-04-18T04:35:43.979Z,20.23
2018-04-18T04:38:13.775Z,19.00
2018-04-18T04:40:43.597Z,18.80
2018-04-18T04:43:13.392Z,19.87
2018-04-18T04:45:42.455Z,18.87
2018-04-18T04:48:11.493Z,19.30
2018-04-18T04:50:41.327Z,18.43
2018-04-18T04:53:10.384Z,18.10
2018-04-18T04:55:39.468Z,21.00
2018-04-18T04:58:08.495Z,21.13
2018-04-18T05:00:38.333Z,22.60
2018-04-18T05:03:07.366Z,21.47
2018-04-18T05:05:37.956Z,19.70
2018-04-18T05:08:07.039Z,79.63
2018-04-18T05:10:36.104Z,69.50
2018-04-18T05:13:05.935Z,29.00
2018-04-18T05:15:35.733Z,21.90
2018-04-18T05:18:05.572Z,22.73
2018-04-18T05:20:34.619Z,21.67
2018-04-18T05:23:03.649Z,21.63
2018-04-18T05:25:33.487Z,28.67
2018-04-18T05:28:02.562Z,65.43
2018-04-18T05:30:32.386Z,47.50
2018-04-18T05:33:01.427Z,22.70
2018-04-18T05:35:30.508Z,23.10
2018-04-18T05:37:59.595Z,19.37
2018-04-18T05:40:28.646Z,20.50
2018-04-18T05:42:57.730Z,19.50
2018-04-18T05:45:27.555Z,17.43
2018-04-18T05:47:56.633Z,17.70
2018-04-18T05:50:26.462Z,18.70
2018-04-18T05:52:55.612Z,18.90
2018-04-18T05:55:24.689Z,18.60
2018-04-18T05:57:53.744Z,18.47
2018-04-18T06:00:22.808Z,18.23
2018-04-18T06:02:51.898Z,18.33
2018-04-18T06:05:20.968Z,18.87
2018-04-18T06:07:50.007Z,20.00
2018-04-18T06:10:19.869Z,20.20
2018-04-18T06:12:48.956Z,22.73
2018-04-18T06:15:18.028Z,20.03
2018-04-18T06:17:47.861Z,29.57
2018-04-18T06:20:16.929Z,23.10
2018-04-18T06:22:46.774Z,23.73
2018-04-18T06:25:15.835Z,23.93
2018-04-18T06:27:45.678Z,19.83
2018-04-18T06:30:14.720Z,19.53
2018-04-18T06:32:43.791Z,20.67
2018-04-18T06:35:12.827Z,18.77
2018-04-18T06:37:42.663Z,16.93
2018-04-18T06:40:11.722Z,20.63
2018-04-18T06:42:40.757Z,34.60
2018-04-18T06:45:09.825Z,20.43
2018-04-18T06:47:39.635Z,21.20
2018-04-18T06:50:09.474Z,17.80
2018-04-18T06:52:38.536Z,18.63
2018-04-18T06:55:08.346Z,74.80
2018-04-18T06:57:38.243Z,23.43
2018-04-18T07:00:07.226Z,39.63
2018-04-18T07:02:36.296Z,36.50
2018-04-18T07:05:05.358Z,20.07
2018-04-18T07:07:35.185Z,27.03
2018-04-18T07:10:04.237Z,30.00
2018-04-18T07:12:33.305Z,15.27
2018-04-18T07:15:02.394Z,23.60
2018-04-18T07:17:31.470Z,23.77
2018-04-18T07:20:00.508Z,30.20
2018-04-18T07:22:29.597Z,14.60
2018-04-18T07:25:00.140Z,13.70
2018-04-18T07:27:29.214Z,13.87
2018-04-18T07:29:59.048Z,14.23
2018-04-18T07:32:28.094Z,15.53
2018-04-18T07:34:57.167Z,12.67
2018-04-18T07:37:26.205Z,12.50
2018-04-18T07:39:55.375Z,13.90
2018-04-18T07:42:24.434Z,13.00
2018-04-18T07:44:53.475Z,12.10
2018-04-18T07:47:22.551Z,11.23
2018-04-18T07:49:51.591Z,12.13
2018-04-18T07:52:20.629Z,13.17
2018-04-18T07:54:49.693Z,12.23
2018-04-18T07:57:18.733Z,12.00
2018-04-18T07:59:47.773Z,12.93
2018-04-18T08:02:16.840Z,11.63
2018-04-18T08:04:46.080Z,14.83
2018-04-18T08:07:15.898Z,12.43
2018-04-18T08:09:44.936Z,11.50
2018-04-18T08:12:13.987Z,11.00
2018-04-18T08:14:43.055Z,10.77
2018-04-18T08:17:12.077Z,9.47
2018-04-18T08:19:41.884Z,10.83
2018-04-18T08:22:10.950Z,10.30
2018-04-18T08:24:40.013Z,10.83
2018-04-18T08:27:09.087Z,11.03
2018-04-18T08:29:38.148Z,12.83
2018-04-18T08:32:07.199Z,11.63
2018-04-18T08:34:36.255Z,11.47
2018-04-18T08:37:05.326Z,10.00
2018-04-18T08:39:34.365Z,16.40
2018-04-18T08:42:03.418Z,11.10
2018-04-18T08:44:32.485Z,10.03
2018-04-18T08:47:01.545Z,11.60
2018-04-18T08:49:30.602Z,10.73
2018-04-18T08:51:59.682Z,9.93
2018-04-18T08:54:28.747Z,10.10
2018-04-18T08:56:57.812Z,10.30
2018-04-18T08:59:26.854Z,8.40
2018-04-18T09:01:55.929Z,9.80
2018-04-18T09:04:24.970Z,9.70
2018-04-18T09:06:54.023Z,9.10
2018-04-18T09:09:23.098Z,9.50
2018-04-18T09:11:52.142Z,9.10
2018-04-18T09:14:21.209Z,9.60
2018-04-18T09:16:51.014Z,8.17
2018-04-18T09:19:20.056Z,9.27
2018-04-18T09:21:49.120Z,8.10
2018-04-18T09:24:18.155Z,7.90
2018-04-18T09:26:47.996Z,8.63
2018-04-18T09:29:17.061Z,9.80
2018-04-18T09:31:46.888Z,14.50
2018-04-18T09:34:15.942Z,44.57
2018-04-18T09:36:44.975Z,9.33
2018-04-18T09:39:14.135Z,8.37
2018-04-18T09:41:43.143Z,7.57
2018-04-18T09:44:12.220Z,7.53
2018-04-18T09:46:41.316Z,8.30
2018-04-18T09:49:10.372Z,7.63
2018-04-18T09:51:39.417Z,7.50
2018-04-18T09:54:08.445Z,6.97
2018-04-18T09:56:37.509Z,7.67
2018-04-18T09:59:06.594Z,7.60
2018-04-18T10:01:47.370Z,7.93
2018-04-18T10:04:16.397Z,7.87
2018-04-18T10:06:45.498Z,7.70
2018-04-18T10:09:14.568Z,7.03
2018-04-18T10:11:44.385Z,7.13
2018-04-18T10:14:14.282Z,7.57
2018-04-18T10:16:43.303Z,7.07
2018-04-18T10:19:13.138Z,6.90
2018-04-18T10:21:42.184Z,7.63
2018-04-18T10:24:11.240Z,6.87
2018-04-18T10:26:40.291Z,6.13
2018-04-18T10:29:10.094Z,6.90
2018-04-18T10:31:39.965Z,6.07
2018-04-18T10:34:09.746Z,6.03
2018-04-18T10:36:38.808Z,6.10
2018-04-18T10:39:07.866Z,6.33
2018-04-18T10:41:37.694Z,18.57
2018-04-18T10:44:06.758Z,12.47
2018-04-18T10:46:35.867Z,5.87
2018-04-18T10:49:04.917Z,5.43
2018-04-18T10:51:33.980Z,5.10
2018-04-18T10:54:03.026Z,5.60
2018-04-18T10:56:32.099Z,5.10
2018-04-18T10:59:01.893Z,5.60
2018-04-18T11:01:31.749Z,5.30
2018-04-18T11:04:00.787Z,4.90
2018-04-18T11:06:29.831Z,5.47
2018-04-18T11:08:58.916Z,5.17
2018-04-18T11:11:27.967Z,4.70
2018-04-18T11:13:57.071Z,4.77
2018-04-18T11:16:26.160Z,5.73
2018-04-18T11:18:55.178Z,5.13
2018-04-18T11:21:25.000Z,5.20
2018-04-18T11:23:54.073Z,4.37
2018-04-18T11:26:23.897Z,6.93
2018-04-18T11:28:53.742Z,6.60
2018-04-18T11:31:22.852Z,5.57
2018-04-18T11:33:51.886Z,5.33
2018-04-18T11:36:20.971Z,6.50
2018-04-18T11:38:50.030Z,3.97
2018-04-18T11:41:19.073Z,5.10
2018-04-18T11:43:48.915Z,4.33
2018-04-18T11:46:18.004Z,4.00
2018-04-18T11:48:47.073Z,7.13
2018-04-18T11:51:16.110Z,6.13
2018-04-18T11:53:45.172Z,4.40
2018-04-18T11:56:14.982Z,4.10
2018-04-18T11:58:44.811Z,4.30
2018-04-18T12:01:13.836Z,3.83
2018-04-18T12:03:42.900Z,4.10
2018-04-18T12:06:11.983Z,3.93
2018-04-18T12:08:41.776Z,3.83
2018-04-18T12:11:11.668Z,4.67
2018-04-18T12:13:40.689Z,4.83
2018-04-18T12:16:10.529Z,4.13
2018-04-18T12:18:39.583Z,4.20
2018-04-18T12:21:08.677Z,3.50
2018-04-18T12:23:37.695Z,5.37
2018-04-18T12:26:07.609Z,4.03
2018-04-18T12:28:37.486Z,3.60
2018-04-18T12:31:06.503Z,5.93
2018-04-18T12:33:35.573Z,5.90
2018-04-18T12:36:04.677Z,3.80
2018-04-18T12:38:33.752Z,3.60
2018-04-18T12:41:02.786Z,4.37
2018-04-18T12:43:32.607Z,4.63
2018-04-18T12:46:02.428Z,3.53
2018-04-18T12:48:31.507Z,5.80
2018-04-18T12:51:01.391Z,4.13
2018-04-18T12:53:30.481Z,4.00
2018-04-18T12:55:59.548Z,3.17
2018-04-18T12:58:28.585Z,3.30
2018-04-18T13:00:57.661Z,3.77
2018-04-18T13:03:26.689Z,3.47
2018-04-18T13:05:56.521Z,3.63
2018-04-18T13:08:25.556Z,4.23
2018-04-18T13:10:54.604Z,3.70
2018-04-18T13:13:23.669Z,3.27
2018-04-18T13:15:52.735Z,3.30
2018-04-18T13:18:21.803Z,3.70
2018-04-18T13:20:51.607Z,4.73
2018-04-18T13:23:20.679Z,4.90
2018-04-18T13:25:50.506Z,3.47
2018-04-18T13:28:19.608Z,3.27
2018-04-18T13:30:49.404Z,3.80
2018-04-18T13:33:19.212Z,4.87
2018-04-18T13:35:49.031Z,3.10
2018-04-18T13:38:18.833Z,4.50
2018-04-18T13:40:48.695Z,3.43
2018-04-18T13:43:18.472Z,3.90
2018-04-18T13:45:47.533Z,5.40
2018-04-18T13:48:16.578Z,5.90
2018-04-18T13:50:45.642Z,4.77
2018-04-18T13:53:15.441Z,3.57
2018-04-18T13:55:44.490Z,3.50
2018-04-18T13:58:13.542Z,3.67
2018-04-18T14:00:43.388Z,3.87
2018-04-18T14:03:12.464Z,13.90
2018-04-18T14:05:41.512Z,4.07
2018-04-18T14:08:10.569Z,4.93
2018-04-18T14:10:39.628Z,4.30
2018-04-18T14:13:08.685Z,5.07
2018-04-18T14:15:37.731Z,5.50
2018-04-18T14:18:07.561Z,3.63
2018-04-18T14:20:36.601Z,5.10
2018-04-18T14:23:05.668Z,4.10
2018-04-18T14:25:34.712Z,5.90
2018-04-18T14:28:04.539Z,6.03
2018-04-18T14:30:34.338Z,5.03
2018-04-18T14:33:04.171Z,8.40
2018-04-18T14:35:34.040Z,5.57
2018-04-18T14:38:03.075Z,4.80
2018-04-18T14:40:32.153Z,4.87
2018-04-18T14:43:01.963Z,3.20
2018-04-18T14:45:31.802Z,3.70
2018-04-18T14:48:00.829Z,6.67
2018-04-18T14:50:29.894Z,5.13
2018-04-18T14:52:58.934Z,6.40
2018-04-18T14:55:27.997Z,5.50
2018-04-18T14:57:57.056Z,14.53
2018-04-18T15:00:26.990Z,6.97
2018-04-18T15:02:56.044Z,6.83
2018-04-18T15:05:25.104Z,8.07
2018-04-18T15:07:54.136Z,5.10
2018-04-18T15:10:23.199Z,6.27
2018-04-18T15:12:52.237Z,6.03
2018-04-18T15:15:22.071Z,3.70
2018-04-18T15:17:51.168Z,5.50
2018-04-18T15:20:20.224Z,8.13
2018-04-18T15:22:49.285Z,7.30
2018-04-18T15:25:18.353Z,7.03
2018-04-18T15:27:47.423Z,5.97
2018-04-18T15:30:17.260Z,6.93
2018-04-18T15:32:46.301Z,5.50
2018-04-18T15:35:15.354Z,4.87
2018-04-18T15:37:44.435Z,5.97
2018-04-18T15:40:13.465Z,4.83
2018-04-18T15:42:42.876Z,5.20
2018-04-18T15:45:11.948Z,4.77
2018-04-18T15:47:41.069Z,4.23
2018-04-18T15:50:10.146Z,5.67
2018-04-18T15:52:39.185Z,4.97
2018-04-18T15:55:08.255Z,4.70
2018-04-18T15:57:37.295Z,5.30
2018-04-18T16:00:07.133Z,7.43
2018-04-18T16:02:36.389Z,5.43
2018-04-18T16:05:05.423Z,5.43
2018-04-18T16:07:34.494Z,5.10
2018-04-18T16:10:03.531Z,5.43
2018-04-18T16:12:32.565Z,4.67
2018-04-18T16:15:01.622Z,6.13
2018-04-18T16:17:31.455Z,4.87
2018-04-18T16:20:00.523Z,5.13
2018-04-18T16:22:29.553Z,5.00
2018-04-18T16:24:58.615Z,4.93
2018-04-18T16:27:28.424Z,5.30
2018-04-18T16:29:57.851Z,5.50
2018-04-18T16:32:26.912Z,6.23
2018-04-18T16:34:56.696Z,4.40
2018-04-18T16:37:25.768Z,5.20
2018-04-18T16:39:55.607Z,5.50
2018-04-18T16:42:25.417Z,6.20
2018-04-18T16:44:54.733Z,6.20
2018-04-18T16:47:23.917Z,7.03
2018-04-18T16:49:53.003Z,5.83
2018-04-18T16:52:22.833Z,5.40
2018-04-18T16:54:51.882Z,8.90
2018-04-18T16:57:20.924Z,6.37
2018-04-18T16:59:49.972Z,5.57
2018-04-18T17:02:19.042Z,7.13
2018-04-18T17:04:48.105Z,6.20
2018-04-18T17:07:17.160Z,7.50
2018-04-18T17:09:46.240Z,6.87
2018-04-18T17:12:15.304Z,6.70
2018-04-18T17:14:44.341Z,9.47
2018-04-18T17:17:14.148Z,9.20
2018-04-18T17:19:43.220Z,8.10
2018-04-18T17:22:12.264Z,9.90
2018-04-18T17:24:42.080Z,9.30
2018-04-18T17:27:11.148Z,7.53
2018-04-18T17:29:40.226Z,8.40
2018-04-18T17:32:09.275Z,7.80
2018-04-18T17:34:38.446Z,6.40
2018-04-18T17:37:08.249Z,9.40
2018-04-18T17:39:37.308Z,14.87
2018-04-18T17:42:06.416Z,29.27
2018-04-18T17:44:35.480Z,36.73
2018-04-18T17:47:05.258Z,8.50
2018-04-18T17:49:35.093Z,7.87
2018-04-18T17:52:04.163Z,9.30
2018-04-18T17:54:34.040Z,10.07
2018-04-18T17:57:03.090Z,8.13
2018-04-18T17:59:32.120Z,8.60
2018-04-18T18:02:01.308Z,8.23
2018-04-18T18:04:30.388Z,8.73
2018-04-18T18:06:59.425Z,17.63
2018-04-18T18:09:28.625Z,12.47
2018-04-18T18:11:57.682Z,29.77
2018-04-18T18:14:26.749Z,15.40
2018-04-18T18:16:55.888Z,11.03
2018-04-18T18:19:24.941Z,12.33
2018-04-18T18:21:54.753Z,62.90
2018-04-18T18:24:23.836Z,21.13
2018-04-18T18:26:53.656Z,30.83
2018-04-18T18:29:22.702Z,11.80
2018-04-18T18:31:51.810Z,11.60
2018-04-18T18:34:20.875Z,12.97
2018-04-18T18:36:49.942Z,11.13
2018-04-18T18:39:19.822Z,17.67
2018-04-18T18:41:49.697Z,30.93
2018-04-18T18:44:18.778Z,41.87
2018-04-18T18:46:47.892Z,20.10
2018-04-18T18:49:16.951Z,14.97
2018-04-18T18:51:46.024Z,13.73
2018-04-18T18:54:15.938Z,14.57
2018-04-18T18:56:45.260Z,14.43
2018-04-18T18:59:15.437Z,15.17
2018-04-18T19:01:44.786Z,15.67
2018-04-18T19:04:14.942Z,14.87
2018-04-18T19:06:44.373Z,17.13
2018-04-18T19:09:13.726Z,15.30
2018-04-18T19:11:43.098Z,17.83
2018-04-18T19:14:12.528Z,14.50
2018-04-18T19:16:41.922Z,13.90
2018-04-18T19:19:12.176Z,14.90
2018-04-18T19:21:42.431Z,14.00
2018-04-18T19:24:11.864Z,14.23
2018-04-18T19:26:42.016Z,15.10
2018-04-18T19:29:12.464Z,13.33
2018-04-18T19:31:41.845Z,15.80
2018-04-18T19:34:11.197Z,16.97
2018-04-18T19:36:40.605Z,15.63
2018-04-18T19:39:09.994Z,16.23
2018-04-18T19:41:39.380Z,16.37
2018-04-18T19:44:09.759Z,16.33
2018-04-18T19:46:41.244Z,18.53
2018-04-18T19:49:10.603Z,16.77
2018-04-18T19:51:40.751Z,21.10
2018-04-18T19:54:10.196Z,18.30
2018-04-18T19:56:39.623Z,16.50
2018-04-18T19:59:09.804Z,17.60
2018-04-18T20:01:39.820Z,16.30
2018-04-18T20:04:09.175Z,15.87
2018-04-18T20:06:38.694Z,15.83
2018-04-18T20:09:08.057Z,16.27
2018-04-18T20:11:38.329Z,16.90
2018-04-18T20:14:08.553Z,15.57
2018-04-18T20:16:38.004Z,15.83
2018-04-18T20:19:07.347Z,15.40
2018-04-18T20:21:36.753Z,17.27
2018-04-18T20:24:06.127Z,17.70
2018-04-18T20:26:36.254Z,15.70
2018-04-18T20:29:05.598Z,13.63
2018-04-18T20:31:35.934Z,16.17
2018-04-18T20:34:05.337Z,41.47
2018-04-18T20:36:49.382Z,30.97
2018-04-18T20:39:19.886Z,15.87
2018-04-18T20:41:55.964Z,15.07
2018-04-18T20:44:25.383Z,14.27
2018-04-18T20:46:54.743Z,18.10
2018-04-18T20:49:24.634Z,16.40
2018-04-18T20:51:54.063Z,18.03
2018-04-18T20:54:23.410Z,16.33
2018-04-18T20:56:52.818Z,14.00
2018-04-18T20:59:22.973Z,14.67
2018-04-18T21:01:52.317Z,12.87
2018-04-18T21:04:21.679Z,12.17
2018-04-18T21:06:51.071Z,13.43
2018-04-18T21:09:20.424Z,13.60
2018-04-18T21:11:50.448Z,13.60
2018-04-18T21:14:19.827Z,13.03
2018-04-18T21:16:49.179Z,14.40
2018-04-18T21:19:18.567Z,12.73
2018-04-18T21:21:48.939Z,13.57
2018-04-18T21:24:18.278Z,12.17
2018-04-18T21:26:47.616Z,11.70
2018-04-18T21:29:16.960Z,12.67
2018-04-18T21:31:46.874Z,12.43
2018-04-18T21:34:16.233Z,12.67
2018-04-18T21:36:45.578Z,11.60
2018-04-18T21:39:14.937Z,12.43
2018-04-18T21:41:44.279Z,11.70
2018-04-18T21:44:13.600Z,12.10
2018-04-18T21:46:43.325Z,13.67
2018-04-18T21:49:13.434Z,11.20
2018-04-18T21:51:44.534Z,12.17
2018-04-18T21:54:13.858Z,16.23
2018-04-18T21:56:43.197Z,11.33
2018-04-18T21:59:12.618Z,11.37
2018-04-18T22:01:41.929Z,12.17
2018-04-18T22:04:11.249Z,11.33
2018-04-18T22:06:40.578Z,11.60
2018-04-18T22:09:09.902Z,14.07
2018-04-18T22:11:39.993Z,13.43
2018-04-18T22:14:09.303Z,13.20
2018-04-18T22:16:39.196Z,13.17
2018-04-18T22:19:08.471Z,13.03
2018-04-18T22:21:37.778Z,11.23
2018-04-18T22:24:07.045Z,11.27
2018-04-18T22:26:36.419Z,11.50
2018-04-18T22:29:05.800Z,10.30
2018-04-18T22:31:35.088Z,11.57
2018-04-18T22:34:04.316Z,11.53
2018-04-18T22:36:33.361Z,10.90
2018-04-18T22:39:02.401Z,11.90
2018-04-18T22:41:32.330Z,12.10
2018-04-18T22:44:02.138Z,11.00
2018-04-18T22:46:31.945Z,11.50
2018-04-18T22:49:01.803Z,10.90
2018-04-18T22:51:30.820Z,11.53
2018-04-18T22:53:59.916Z,10.10
2018-04-18T22:56:28.963Z,11.03
2018-04-18T22:58:57.998Z,10.33
2018-04-18T23:01:27.100Z,9.90
2018-04-18T23:03:56.142Z,10.33
2018-04-18T23:06:25.462Z,10.60
2018-04-18T23:08:54.722Z,10.20
2018-04-18T23:11:23.734Z,9.70
2018-04-18T23:13:52.775Z,9.30
2018-04-18T23:16:21.841Z,9.50
2018-04-18T23:18:51.103Z,10.00
2018-04-18T23:21:20.136Z,9.93
2018-04-18T23:23:49.201Z,10.47
2018-04-18T23:26:18.260Z,9.33
2018-04-18T23:28:47.293Z,9.60
2018-04-18T23:31:16.429Z,10.20
2018-04-18T23:33:45.478Z,10.73
2018-04-18T23:36:14.544Z,12.10
2018-04-18T23:38:43.635Z,10.30
2018-04-18T23:41:12.665Z,10.17
2018-04-18T23:43:41.708Z,10.60
2018-04-18T23:46:10.789Z,10.37
2018-04-18T23:48:39.832Z,10.23
2018-04-18T23:51:09.654Z,9.43
2018-04-18T23:53:38.817Z,10.07
2018-04-18T23:56:07.875Z,10.17
2018-04-18T23:58:36.921Z,8.80
